Time;durP1;ratioP1;P1;durP2;ratioP2;P2;SDS_P1;SDS_P2;PMS_P1;PMS_P2;Temp;Humidity;BMP_temperature;BMP_pressure;BME280_temperature;BME280_humidity;BME280_pressure;Samples;Min_cycle;Max_cycle;Signal;HPM_P1;HPM_P2
2022/02/27 00:02:18;;;;;;;31.35;17.30;;;;;;;1.18;90.16;93252.66;4973303;28;20491;-85
2022/02/27 00:04:44;;;;;;;33.97;18.52;;;;;;;1.25;89.90;93248.56;4973031;28;20055;-86
2022/02/27 00:07:12;;;;;;;34.97;19.17;;;;;;;1.02;93.12;93233.91;4972969;28;20044;-85
2022/02/27 00:09:40;;;;;;;41.20;23.67;;;;;;;0.91;93.89;93234.16;4972992;28;20057;-85
2022/02/27 00:12:08;;;;;;;35.72;22.17;;;;;;;0.72;94.98;93227.56;4972881;28;20078;-85
2022/02/27 00:14:36;;;;;;;33.67;20.23;;;;;;;0.91;94.69;93234.97;4973014;28;20517;-85
2022/02/27 00:17:03;;;;;;;40.35;24.10;;;;;;;1.01;93.22;93232.31;4972846;28;20043;-85
2022/02/27 00:19:30;;;;;;;42.97;21.92;;;;;;;1.13;91.98;93230.34;4972348;28;20057;-85
2022/02/27 00:21:57;;;;;;;43.53;22.23;;;;;;;1.23;91.58;93226.88;4972745;28;20051;-85
2022/02/27 00:24:24;;;;;;;35.10;20.60;;;;;;;1.20;91.81;93221.19;4972699;28;20055;-85
2022/02/27 00:26:50;;;;;;;34.60;19.35;;;;;;;1.31;90.83;93215.03;4972332;28;20047;-85
2022/02/27 00:29:17;;;;;;;34.00;18.30;;;;;;;1.27;90.90;93211.25;4971973;28;20098;-85
2022/02/27 00:31:46;;;;;;;28.50;16.92;;;;;;;0.93;92.31;93201.94;4972681;28;20490;-85
2022/02/27 00:34:12;;;;;;;35.75;21.63;;;;;;;0.87;94.69;93200.00;4972788;28;20051;-85
2022/02/27 00:36:39;;;;;;;78.88;39.30;;;;;;;0.62;97.33;93198.16;4972734;28;20439;-84
2022/02/27 00:39:06;;;;;;;128.90;62.72;;;;;;;0.45;99.58;93173.69;4972747;28;20047;-84
2022/02/27 00:41:33;;;;;;;95.25;47.80;;;;;;;0.32;99.55;93151.34;4972685;28;20070;-84
2022/02/27 00:44:00;;;;;;;77.32;38.45;;;;;;;0.73;97.75;93198.81;4972006;28;20110;-85
2022/02/27 00:46:27;;;;;;;52.65;27.38;;;;;;;0.84;96.46;93201.09;4972507;28;20084;-85
2022/02/27 00:48:55;;;;;;;52.53;26.98;;;;;;;0.92;95.62;93205.38;4972579;28;20054;-84
2022/02/27 00:51:22;;;;;;;47.42;26.35;;;;;;;0.89;95.65;93209.00;4972360;28;20051;-84
2022/02/27 00:53:49;;;;;;;63.65;32.65;;;;;;;1.02;94.60;93216.19;4972484;28;20084;-84
2022/02/27 00:56:15;;;;;;;78.13;37.90;;;;;;;1.13;95.19;93215.16;4972428;28;20063;-85
2022/02/27 00:58:46;;;;;;;52.10;28.38;;;;;;;1.15;96.68;93215.78;4972033;28;20055;-84
2022/02/27 01:01:13;;;;;;;46.40;25.67;;;;;;;0.93;97.48;93219.66;4971724;28;20053;-85
2022/02/27 01:03:40;;;;;;;44.42;24.50;;;;;;;0.99;97.39;93230.88;4972124;28;20051;-84
2022/02/27 01:06:08;;;;;;;43.97;23.33;;;;;;;1.00;98.56;93238.31;4971925;28;20094;-84
2022/02/27 01:08:35;;;;;;;52.03;24.83;;;;;;;1.08;98.31;93231.72;4972511;28;20059;-85
2022/02/27 01:11:02;;;;;;;40.38;21.58;;;;;;;0.79;99.79;93226.81;4971978;28;20047;-85
2022/02/27 01:13:28;;;;;;;28.40;17.40;;;;;;;0.53;100.00;93211.66;4972088;28;20062;-84
2022/02/27 01:15:55;;;;;;;33.28;18.70;;;;;;;0.77;100.00;93215.28;4972776;28;20073;-84
2022/02/27 01:18:22;;;;;;;34.45;17.75;;;;;;;0.91;99.80;93221.50;4972226;28;20057;-83
2022/02/27 01:20:49;;;;;;;35.38;18.95;;;;;;;0.96;99.52;93228.66;4972268;28;20054;-83
2022/02/27 01:23:17;;;;;;;37.38;22.00;;;;;;;1.09;96.93;93229.03;4972034;28;20495;-83
2022/02/27 01:25:44;;;;;;;35.47;17.95;;;;;;;1.10;95.94;93240.75;4971497;28;20053;-84
2022/02/27 01:28:11;;;;;;;42.33;20.23;;;;;;;0.97;97.76;93238.63;4971925;28;20051;-84
2022/02/27 01:30:38;;;;;;;38.70;20.92;;;;;;;0.88;99.05;93237.00;4971768;28;20058;-84
2022/02/27 01:33:05;;;;;;;41.75;23.83;;;;;;;0.73;100.00;93227.44;4971961;28;20051;-84
2022/02/27 01:35:31;;;;;;;40.95;21.50;;;;;;;0.63;100.00;93219.13;4971585;28;20435;-85
2022/02/27 01:37:58;;;;;;;37.28;21.27;;;;;;;0.57;100.00;93218.00;4972132;28;20121;-85
2022/02/27 01:40:26;;;;;;;50.72;26.40;;;;;;;0.56;100.00;93221.50;4971569;28;20055;-85
2022/02/27 01:42:54;;;;;;;48.88;26.90;;;;;;;0.39;100.00;93221.38;4974772;28;20113;-85
2022/02/27 01:45:20;;;;;;;41.45;22.60;;;;;;;0.36;100.00;93228.44;4975595;28;20063;-85
2022/02/27 01:47:47;;;;;;;29.88;17.33;;;;;;;0.48;100.00;93217.16;4976108;28;20055;-85
2022/02/27 01:50:16;;;;;;;34.13;17.83;;;;;;;0.41;100.00;93187.56;4976354;28;20404;-89
2022/02/27 01:52:43;;;;;;;23.92;14.52;;;;;;;0.85;100.00;93214.53;4975552;28;20541;-85
2022/02/27 01:55:11;;;;;;;23.55;15.73;;;;;;;0.88;100.00;93209.97;4975804;28;20129;-85
2022/02/27 01:57:40;;;;;;;31.00;17.17;;;;;;;0.91;100.00;93206.34;4975830;28;20407;-84
2022/02/27 02:00:08;;;;;;;42.15;21.30;;;;;;;0.90;100.00;93225.00;4975444;28;20062;-84
2022/02/27 02:02:35;;;;;;;34.20;17.27;;;;;;;1.02;100.00;93228.06;4975227;28;20061;-84
2022/02/27 02:05:02;;;;;;;57.97;28.55;;;;;;;1.16;100.00;93224.19;4975467;28;20411;-85
2022/02/27 02:07:29;;;;;;;46.75;22.90;;;;;;;1.22;100.00;93213.44;4975015;28;20059;-84
2022/02/27 02:09:56;;;;;;;37.60;20.20;;;;;;;1.44;97.48;93208.78;4975394;28;20047;-84
2022/02/27 02:12:23;;;;;;;33.92;18.83;;;;;;;1.38;96.80;93159.56;4975508;28;20061;-85
2022/02/27 02:14:51;;;;;;;32.60;18.23;;;;;;;1.51;94.92;93159.13;4975153;28;20054;-84
2022/02/27 02:17:18;;;;;;;42.22;17.23;;;;;;;1.64;94.76;93168.78;4975270;28;20419;-84
2022/02/27 02:19:45;;;;;;;34.50;18.50;;;;;;;1.65;94.82;93157.72;4975015;28;20051;-85
2022/02/27 02:22:13;;;;;;;39.67;18.65;;;;;;;1.65;94.85;93157.72;4975216;28;20077;-84
2022/02/27 02:24:40;;;;;;;36.78;19.02;;;;;;;1.64;96.14;93173.06;4974945;28;20076;-85
2022/02/27 02:27:07;;;;;;;35.80;19.23;;;;;;;1.45;97.90;93180.00;4974839;28;20050;-85
2022/02/27 02:29:34;;;;;;;35.58;18.40;;;;;;;1.50;97.33;93202.31;4974936;28;20055;-85
2022/02/27 02:32:01;;;;;;;31.33;17.48;;;;;;;1.51;97.91;93212.28;4974761;28;20050;-85
2022/02/27 02:34:28;;;;;;;52.13;33.00;;;;;;;1.48;98.57;93225.22;4974850;28;20451;-85
2022/02/27 02:36:56;;;;;;;39.70;21.40;;;;;;;1.24;99.02;93238.59;4974860;28;20054;-85
2022/02/27 02:39:25;;;;;;;43.38;21.48;;;;;;;1.13;100.00;93270.81;4975013;28;20055;-85
2022/02/27 02:41:52;;;;;;;30.15;17.65;;;;;;;0.91;100.00;93257.72;4974843;28;20582;-84
2022/02/27 02:44:19;;;;;;;35.58;22.13;;;;;;;1.09;99.60;93269.53;4974625;28;20043;-84
2022/02/27 02:46:46;;;;;;;35.17;17.98;;;;;;;1.09;100.00;93254.34;4974644;28;20046;-85
2022/02/27 02:49:14;;;;;;;32.92;18.10;;;;;;;1.29;100.00;93259.19;4974877;28;20073;-85
2022/02/27 02:51:42;;;;;;;30.58;17.67;;;;;;;1.46;95.94;93260.84;4974909;28;20058;-84
2022/02/27 02:54:09;;;;;;;31.63;17.48;;;;;;;1.49;95.85;93244.56;4974337;28;20050;-84
2022/02/27 02:56:38;;;;;;;34.10;19.00;;;;;;;1.74;95.00;93247.16;4974551;28;20097;-85
2022/02/27 02:59:06;;;;;;;34.00;19.45;;;;;;;1.76;95.44;93241.94;4974298;28;20047;-83
2022/02/27 03:01:33;;;;;;;33.63;19.05;;;;;;;1.84;94.22;93234.34;4974148;28;20054;-85
2022/02/27 03:04:00;;;;;;;37.15;19.25;;;;;;;1.95;93.39;93251.00;4974199;28;20054;-84
2022/02/27 03:06:27;;;;;;;32.42;16.65;;;;;;;1.98;94.23;93253.22;4974063;28;20057;-85
2022/02/27 03:08:54;;;;;;;33.50;18.05;;;;;;;2.03;93.38;93273.03;4974178;28;20499;-84
2022/02/27 03:11:21;;;;;;;35.20;18.38;;;;;;;2.05;93.57;93258.47;4974226;28;20051;-85
2022/02/27 03:13:50;;;;;;;32.38;18.02;;;;;;;2.13;93.00;93255.94;4974138;28;20050;-85
2022/02/27 03:16:17;;;;;;;35.05;20.77;;;;;;;1.93;93.40;93265.56;4973913;28;20058;-84
2022/02/27 03:18:44;;;;;;;18.25;12.25;;;;;;;1.94;88.32;93267.94;4973887;28;20050;-84
2022/02/27 03:21:11;;;;;;;23.77;14.25;;;;;;;1.96;91.14;93257.66;4974200;28;20550;-85
2022/02/27 03:23:38;;;;;;;22.05;13.43;;;;;;;2.03;89.00;93260.38;4974077;28;20042;-85
2022/02/27 03:26:05;;;;;;;22.63;14.57;;;;;;;1.95;89.53;93238.34;4973645;28;20495;-84
2022/02/27 03:28:34;;;;;;;24.77;14.63;;;;;;;2.11;87.66;93251.03;4973862;28;20455;-85
2022/02/27 03:31:02;;;;;;;30.58;20.73;;;;;;;2.13;87.94;93256.72;4973956;28;20055;-85
2022/02/27 03:33:29;;;;;;;22.42;14.20;;;;;;;2.13;88.32;93241.53;4973649;28;20046;-83
2022/02/27 03:35:56;;;;;;;19.42;12.48;;;;;;;1.98;88.94;93281.88;4973915;28;20507;-84
2022/02/27 03:38:27;;;;;;;24.48;14.32;;;;;;;1.57;88.81;93213.41;4973652;28;20057;-88
2022/02/27 03:40:54;;;;;;;23.83;14.05;;;;;;;1.95;89.92;93249.25;4973857;28;20061;-85
2022/02/27 03:43:21;;;;;;;25.52;15.95;;;;;;;1.80;90.62;93233.88;4973678;28;20054;-85
2022/02/27 03:45:48;;;;;;;28.17;17.25;;;;;;;1.94;90.49;93247.66;4973643;28;20055;-85
2022/02/27 03:48:16;;;;;;;19.50;14.00;;;;;;;1.86;91.58;93235.00;4973829;28;20061;-84
2022/02/27 03:50:43;;;;;;;20.40;13.15;;;;;;;1.75;90.95;93204.91;4973731;28;20051;-85
2022/02/27 03:53:09;;;;;;;19.73;14.10;;;;;;;1.90;91.31;93240.53;4973650;28;20051;-85
2022/02/27 03:55:36;;;;;;;29.73;17.65;;;;;;;1.81;91.64;93224.53;4973756;28;20061;-89
2022/02/27 03:58:03;;;;;;;25.00;15.02;;;;;;;1.67;91.60;93208.97;4973688;28;20054;-84
2022/02/27 04:00:31;;;;;;;22.90;13.85;;;;;;;1.62;92.73;93228.91;4973439;28;20043;-85
2022/02/27 04:03:00;;;;;;;24.08;14.70;;;;;;;1.83;91.13;93238.63;4973607;28;20055;-86
2022/02/27 04:05:28;;;;;;;23.85;13.63;;;;;;;1.83;89.98;93240.38;4972599;28;20051;-88
2022/02/27 04:07:55;;;;;;;25.38;15.30;;;;;;;2.03;90.49;93260.38;4973328;28;20047;-85
2022/02/27 04:10:22;;;;;;;24.13;14.55;;;;;;;2.13;89.91;93266.09;4973159;28;20054;-85
2022/02/27 04:12:50;;;;;;;25.05;14.52;;;;;;;2.26;89.66;93288.41;4972904;28;20078;-87
2022/02/27 04:15:17;;;;;;;23.65;14.73;;;;;;;2.30;89.19;93287.16;4973064;28;20407;-86
2022/02/27 04:17:44;;;;;;;22.08;13.95;;;;;;;2.37;89.04;93303.31;4972905;28;20055;-85
2022/02/27 04:20:11;;;;;;;22.70;13.73;;;;;;;2.19;89.36;93292.53;4972859;28;20078;-86
2022/02/27 04:22:39;;;;;;;24.33;14.13;;;;;;;2.34;88.96;93296.03;4972813;28;20476;-86
2022/02/27 04:25:07;;;;;;;22.63;13.95;;;;;;;2.44;89.33;93288.28;4972494;28;20106;-85
2022/02/27 04:27:33;;;;;;;23.73;14.25;;;;;;;2.40;89.41;93302.22;4972961;28;20058;-84
2022/02/27 04:30:07;;;;;;;26.58;14.05;;;;;;;2.43;88.63;93309.53;4972673;28;20058;-85
2022/02/27 04:32:34;;;;;;;21.00;14.15;;;;;;;2.38;89.69;93289.72;4972715;28;20326;-86
2022/02/27 04:35:00;;;;;;;21.88;13.95;;;;;;;1.82;93.91;93269.19;4972795;28;20062;-87
2022/02/27 04:37:27;;;;;;;22.98;13.98;;;;;;;1.84;94.67;93259.69;4972467;28;20479;-84
2022/02/27 04:39:56;;;;;;;21.25;13.70;;;;;;;1.74;94.48;93257.28;4972685;28;20462;-85
2022/02/27 04:42:22;;;;;;;21.27;13.73;;;;;;;1.78;95.38;93273.75;4972837;28;20061;-85
2022/02/27 04:44:49;;;;;;;19.55;13.40;;;;;;;1.80;93.56;93261.72;4972649;28;20491;-85
2022/02/27 04:47:16;;;;;;;21.77;13.38;;;;;;;1.76;98.72;93287.53;4972877;28;20081;-85
2022/02/27 04:49:43;;;;;;;21.38;14.02;;;;;;;1.61;100.00;93270.38;4960078;28;20499;-89
2022/02/27 04:52:11;;;;;;;24.63;14.95;;;;;;;1.58;100.00;93274.00;4956382;28;20062;-85
2022/02/27 04:54:38;;;;;;;22.05;13.80;;;;;;;1.57;100.00;93266.59;4969941;28;20058;-85
2022/02/27 04:57:07;;;;;;;31.75;17.05;;;;;;;1.55;100.00;93278.59;4968765;28;20514;-89
2022/02/27 04:59:34;;;;;;;28.48;16.15;;;;;;;1.63;100.00;93260.09;4971678;28;20053;-85
2022/02/27 05:02:01;;;;;;;47.80;24.77;;;;;;;1.43;100.00;93286.44;4972343;28;20412;-93
2022/02/27 05:04:27;;;;;;;28.30;16.38;;;;;;;1.10;100.00;93253.38;4970857;28;20062;-85
2022/02/27 05:06:54;;;;;;;31.88;19.23;;;;;;;0.88;100.00;93282.53;4971725;28;20051;-85
2022/02/27 05:09:21;;;;;;;32.88;17.52;;;;;;;0.91;100.00;93272.09;4972247;28;20574;-85
2022/02/27 05:11:49;;;;;;;45.22;25.73;;;;;;;0.97;100.00;93275.78;4971809;28;20050;-85
2022/02/27 05:14:17;;;;;;;30.38;18.25;;;;;;;1.05;100.00;93270.75;4972090;28;20492;-85
2022/02/27 05:16:44;;;;;;;22.45;15.13;;;;;;;1.12;100.00;93274.28;4972315;28;20076;-86
2022/02/27 05:19:13;;;;;;;16.27;11.05;;;;;;;1.18;100.00;93291.41;4973099;28;20050;-86
2022/02/27 05:21:40;;;;;;;17.48;11.30;;;;;;;1.30;100.00;93271.66;4952984;28;20134;-86
2022/02/27 05:24:10;;;;;;;17.25;11.45;;;;;;;1.46;100.00;93291.22;4952867;29;20088;-85
2022/02/27 05:26:38;;;;;;;15.27;10.82;;;;;;;1.58;100.00;93299.31;4952554;28;20047;-85
2022/02/27 05:29:05;;;;;;;14.45;11.38;;;;;;;1.60;100.00;93297.44;4952646;29;20062;-85
2022/02/27 05:31:33;;;;;;;14.15;9.82;;;;;;;1.48;100.00;93285.97;4953066;28;20047;-86
2022/02/27 05:34:00;;;;;;;14.00;10.70;;;;;;;1.12;100.00;93293.72;4952496;28;20094;-87
2022/02/27 05:36:27;;;;;;;18.50;11.57;;;;;;;1.24;100.00;93279.09;4953827;28;20052;-86
2022/02/27 05:38:54;;;;;;;13.43;9.20;;;;;;;1.06;100.00;93268.09;4971549;28;20451;-89
2022/02/27 05:41:34;;;;;;;12.05;8.80;;;;;;;0.45;100.00;93193.91;4972258;28;20055;-95
2022/02/27 05:44:01;;;;;;;16.67;9.93;;;;;;;0.84;100.00;93235.72;4971667;28;20058;-86
2022/02/27 05:46:28;;;;;;;11.30;7.20;;;;;;;0.90;100.00;93263.72;4971990;28;20066;-86
2022/02/27 05:48:58;;;;;;;10.70;8.02;;;;;;;0.80;100.00;93263.81;4971625;28;20526;-88
2022/02/27 05:51:29;;;;;;;11.35;8.48;;;;;;;0.87;100.00;93253.09;4971631;28;20046;-87
2022/02/27 05:53:57;;;;;;;13.95;9.00;;;;;;;0.95;100.00;93253.16;4970393;28;20047;-85
2022/02/27 05:56:23;;;;;;;9.55;6.30;;;;;;;1.10;100.00;93240.75;4971389;28;20054;-87
2022/02/27 05:58:51;;;;;;;10.75;7.18;;;;;;;1.28;100.00;93255.06;4971861;28;20054;-86
2022/02/27 06:01:18;;;;;;;9.25;6.78;;;;;;;1.25;100.00;93266.25;4972370;28;20047;-88
2022/02/27 06:03:44;;;;;;;9.23;6.38;;;;;;;1.24;100.00;93271.50;4972629;28;20058;-89
2022/02/27 06:06:15;;;;;;;10.00;6.75;;;;;;;1.14;100.00;93267.34;4973506;28;20050;-87
2022/02/27 06:08:42;;;;;;;10.93;7.30;;;;;;;1.18;100.00;93276.22;4971305;28;20055;-86
2022/02/27 06:11:09;;;;;;;9.68;6.43;;;;;;;1.33;100.00;93273.91;4971249;28;20503;-87
2022/02/27 06:13:37;;;;;;;10.20;6.72;;;;;;;1.48;100.00;93275.09;4971683;28;20055;-86
2022/02/27 06:16:04;;;;;;;11.90;7.85;;;;;;;1.61;100.00;93272.91;4971298;28;20050;-85
2022/02/27 06:18:32;;;;;;;11.48;8.15;;;;;;;1.68;100.00;93276.44;4971262;28;20047;-85
2022/02/27 06:21:05;;;;;;;14.40;9.55;;;;;;;1.77;100.00;93269.66;4971796;28;20085;-86
2022/02/27 06:26:43;;;;;;;12.05;6.30;;;;;;;1.76;100.00;93252.84;4965964;28;20507;-86
2022/02/27 06:29:13;;;;;;;7.28;5.95;;;;;;;1.92;97.34;93277.44;4974465;28;20058;-86
2022/02/27 06:31:39;;;;;;;7.70;5.57;;;;;;;1.96;98.25;93258.47;4975223;28;20067;-86
2022/02/27 06:34:08;;;;;;;7.32;4.95;;;;;;;1.60;100.00;93246.00;4975489;28;20050;-88
2022/02/27 06:36:39;;;;;;;10.70;6.00;;;;;;;1.50;100.00;93248.66;4975832;28;20109;-89
2022/02/27 06:39:08;;;;;;;24.33;9.90;;;;;;;1.59;100.00;93259.63;4975007;28;20047;-86
2022/02/27 06:41:35;;;;;;;22.92;11.00;;;;;;;1.48;100.00;93240.41;4975191;28;20098;-86
2022/02/27 06:44:04;;;;;;;17.13;8.63;;;;;;;1.66;100.00;93255.50;4974836;28;20487;-86
2022/02/27 06:46:41;;;;;;;;;;;;;;;;;;;;;
2022/02/27 06:49:08;;;;;;;9.85;6.75;;;;;;;1.59;100.00;93237.59;4974855;28;20080;-89
2022/02/27 06:51:38;;;;;;;6.57;4.88;;;;;;;1.59;100.00;93244.41;4974912;28;20099;-95
2022/02/27 06:54:10;;;;;;;12.07;7.03;;;;;;;1.32;100.00;93210.78;4974678;28;20047;-91
2022/02/27 06:56:39;;;;;;;17.90;9.57;;;;;;;1.52;100.00;93235.88;4974481;28;20156;-86
2022/02/27 06:59:07;;;;;;;7.38;5.47;;;;;;;1.68;100.00;93245.25;4974919;28;20043;-86
2022/02/27 07:01:34;;;;;;;9.85;6.85;;;;;;;1.43;100.00;93250.22;4976300;28;20054;-86
2022/02/27 07:04:00;;;;;;;6.43;4.63;;;;;;;1.40;100.00;93246.28;4975785;28;20138;-85
2022/02/27 07:06:27;;;;;;;8.80;6.00;;;;;;;1.60;100.00;93246.00;4974454;28;20051;-86
2022/02/27 07:09:03;;;;;;;16.95;6.85;;;;;;;1.43;100.00;93230.75;4975838;28;20062;-90
2022/02/27 07:11:30;;;;;;;14.85;7.22;;;;;;;1.74;100.00;93259.81;4974258;28;20081;-86
2022/02/27 07:13:57;;;;;;;20.67;10.70;;;;;;;1.70;100.00;93253.47;4974452;28;20077;-86
2022/02/27 07:16:25;;;;;;;23.67;12.00;;;;;;;1.52;100.00;93226.50;4973624;28;20514;-87
2022/02/27 07:18:55;;;;;;;9.48;5.85;;;;;;;1.86;100.00;93257.78;4974014;28;20102;-86
2022/02/27 07:21:22;;;;;;;8.10;5.43;;;;;;;1.92;99.94;93262.25;4973962;28;20051;-86
2022/02/27 07:23:59;;;;;;;;;;;;;;;;;;;;;
2022/02/27 07:26:26;;;;;;;34.05;20.88;;;;;;;1.61;100.00;93267.84;4973672;28;20065;-86
2022/02/27 07:28:53;;;;;;;10.13;5.65;;;;;;;1.62;100.00;93233.97;4974216;28;20050;-86
2022/02/27 07:31:21;;;;;;;7.63;5.85;;;;;;;1.61;100.00;93247.59;4973799;28;20058;-87
2022/02/27 07:34:06;;;;;;;9.05;5.75;;;;;;;1.44;100.00;93216.38;4974424;28;20081;-86
2022/02/27 07:39:17;;;;;;;5.47;3.58;;;;;;;1.59;97.59;93217.34;4971099;28;20062;-87
2022/02/27 07:41:46;;;;;;;8.27;4.90;;;;;;;1.67;100.00;93256.31;4974538;28;20069;-90
2022/02/27 07:44:13;;;;;;;9.70;5.93;;;;;;;1.59;100.00;93254.56;4974045;28;20097;-86
2022/02/27 07:46:40;;;;;;;10.70;7.10;;;;;;;1.42;100.00;93257.03;4973849;28;20066;-89
2022/02/27 07:49:09;;;;;;;10.32;6.78;;;;;;;1.23;100.00;93227.69;4962793;28;20046;-87
2022/02/27 07:51:38;;;;;;;11.45;7.53;;;;;;;1.71;100.00;93244.94;4974929;28;20055;-85
2022/02/27 07:54:05;;;;;;;17.48;9.88;;;;;;;1.87;100.00;93227.22;4973623;28;20401;-83
2022/02/27 07:56:32;;;;;;;12.23;8.45;;;;;;;2.19;100.00;93234.25;4973488;28;20066;-85
2022/02/27 07:58:59;;;;;;;10.77;7.18;;;;;;;2.15;100.00;93238.84;4973187;28;20455;-86
2022/02/27 08:01:26;;;;;;;17.20;10.13;;;;;;;2.32;98.55;93256.59;4973282;28;20054;-85
2022/02/27 08:03:54;;;;;;;11.75;7.50;;;;;;;2.54;96.84;93261.03;4973708;28;20059;-87
2022/02/27 08:06:23;;;;;;;11.52;8.35;;;;;;;2.69;95.82;93265.47;4973122;28;20440;-86
2022/02/27 08:08:50;;;;;;;11.20;7.18;;;;;;;2.85;94.28;93251.16;4972958;28;20054;-85
2022/02/27 08:11:17;;;;;;;16.50;9.55;;;;;;;2.91;92.59;93261.47;4973220;28;20054;-85
2022/02/27 08:13:44;;;;;;;31.25;13.48;;;;;;;2.89;93.11;93248.16;4972833;28;20424;-85
2022/02/27 08:16:11;;;;;;;17.33;7.80;;;;;;;2.65;89.99;93270.06;4972365;28;20058;-85
2022/02/27 08:18:38;;;;;;;9.88;6.35;;;;;;;2.70;89.46;93254.38;4972457;28;20055;-85
2022/02/27 08:21:05;;;;;;;10.32;6.90;;;;;;;2.40;93.43;93256.59;4973088;28;20043;-85
2022/02/27 08:23:33;;;;;;;10.75;7.90;;;;;;;2.67;94.02;93252.16;4973234;28;20047;-85
2022/02/27 08:26:00;;;;;;;19.25;8.82;;;;;;;2.88;92.35;93258.47;4973083;28;20046;-84
2022/02/27 08:28:28;;;;;;;9.48;5.78;;;;;;;2.87;89.92;93259.44;4972744;28;20042;-86
2022/02/27 08:30:55;;;;;;;9.15;5.85;;;;;;;1.88;93.67;93222.97;4973159;28;20049;-86
2022/02/27 08:33:23;;;;;;;12.68;7.65;;;;;;;2.34;95.15;93254.69;4973039;28;20047;-85
2022/02/27 08:35:49;;;;;;;6.72;4.50;;;;;;;2.07;94.12;93242.16;4972991;28;20054;-84
2022/02/27 08:38:16;;;;;;;8.23;5.07;;;;;;;1.90;97.34;93251.44;4972885;28;20061;-86
2022/02/27 08:40:45;;;;;;;8.07;5.95;;;;;;;1.45;100.00;93212.91;4972994;28;20038;-87
2022/02/27 08:43:11;;;;;;;8.63;6.15;;;;;;;1.64;100.00;93239.69;4972386;28;20046;-85
2022/02/27 08:45:38;;;;;;;13.38;7.32;;;;;;;1.76;100.00;93226.75;4972643;28;20054;-86
2022/02/27 08:48:05;;;;;;;11.50;7.00;;;;;;;1.59;100.00;93224.16;4974053;28;20089;-88
2022/02/27 08:50:32;;;;;;;8.70;5.70;;;;;;;1.67;100.00;93216.56;4973689;28;20051;-86
2022/02/27 08:53:02;;;;;;;9.90;6.60;;;;;;;1.81;100.00;93214.41;4972400;28;20121;-85
2022/02/27 08:55:30;;;;;;;27.48;16.50;;;;;;;1.97;100.00;93223.75;4972386;28;20047;-85
2022/02/27 08:57:59;;;;;;;9.23;6.55;;;;;;;1.76;100.00;93227.53;4972131;28;20057;-85
2022/02/27 09:00:26;;;;;;;15.45;7.90;;;;;;;1.62;100.00;93223.84;4972583;28;20097;-85
2022/02/27 09:02:53;;;;;;;13.20;8.25;;;;;;;1.53;100.00;93205.31;4972423;28;20101;-85
2022/02/27 09:05:19;;;;;;;9.80;6.40;;;;;;;1.16;100.00;93186.22;4972255;28;20047;-85
2022/02/27 09:07:46;;;;;;;16.58;9.30;;;;;;;1.50;100.00;93209.88;4972151;28;20059;-87
2022/02/27 09:10:13;;;;;;;18.60;11.52;;;;;;;1.50;100.00;93204.84;4972031;28;20101;-85
2022/02/27 09:12:41;;;;;;;11.73;7.70;;;;;;;1.52;100.00;93190.28;4972312;28;20051;-88
2022/02/27 09:15:13;;;;;;;8.25;6.45;;;;;;;1.59;100.00;93183.66;4972870;28;20487;-88
2022/02/27 09:17:42;;;;;;;12.70;8.18;;;;;;;1.88;100.00;93190.03;4972685;28;20065;-88
2022/02/27 09:20:10;;;;;;;14.43;8.70;;;;;;;2.05;98.44;93185.78;4972267;28;20051;-86
2022/02/27 09:22:37;;;;;;;17.45;10.43;;;;;;;1.76;100.00;93140.63;4972705;28;20517;-89
2022/02/27 09:25:05;;;;;;;19.13;11.95;;;;;;;1.93;100.00;93177.69;4972673;28;20121;-86
2022/02/27 09:27:32;;;;;;;17.85;10.88;;;;;;;1.96;100.00;93186.72;4972613;28;20102;-88
2022/02/27 09:30:00;;;;;;;61.80;35.95;;;;;;;2.09;100.00;93168.53;4972181;28;20109;-85
2022/02/27 09:32:30;;;;;;;40.28;25.10;;;;;;;2.42;92.45;93182.91;4972023;28;20054;-88
2022/02/27 09:34:57;;;;;;;21.85;13.88;;;;;;;2.61;83.98;93191.91;4972757;28;20051;-85
2022/02/27 09:37:24;;;;;;;10.23;6.38;;;;;;;2.88;87.62;93205.19;4972059;28;20397;-85
2022/02/27 09:39:53;;;;;;;10.88;6.15;;;;;;;3.12;85.63;93198.47;4972139;28;20051;-86
2022/02/27 09:42:44;;;;;;;18.10;11.32;;;;;;;2.90;85.23;93176.16;4972359;28;20050;-93
2022/02/27 09:45:15;;;;;;;18.15;10.73;;;;;;;2.52;81.17;93138.69;4966024;28;20047;-85
2022/02/27 09:47:45;;;;;;;10.80;7.93;;;;;;;2.72;86.47;93198.41;4972426;28;20058;-86
2022/02/27 09:50:13;;;;;;;11.82;8.07;;;;;;;2.85;88.84;93200.44;4971159;28;20047;-86
2022/02/27 09:52:41;;;;;;;11.82;9.18;;;;;;;2.33;92.16;93199.88;4966643;28;20058;-86
2022/02/27 09:55:12;;;;;;;11.00;7.50;;;;;;;2.25;92.71;93191.31;4970740;28;20101;-86
2022/02/27 09:57:39;;;;;;;28.88;18.55;;;;;;;2.67;91.00;93193.81;4971604;28;20078;-87
2022/02/27 10:00:08;;;;;;;9.80;6.95;;;;;;;2.87;82.11;93198.53;4971125;28;20121;-85
2022/02/27 10:02:45;;;;;;;;;;;;;;;;;;;;;
2022/02/27 10:05:24;;;;;;;11.77;7.07;;;;;;;2.48;89.18;93194.94;4975542;28;20054;-87
2022/02/27 10:07:58;;;;;;;11.35;7.20;;;;;;;2.69;86.74;93158.94;4975373;28;20117;-85
2022/02/27 10:10:25;;;;;;;10.07;6.20;;;;;;;2.72;82.35;93183.97;4976150;28;20495;-89
2022/02/27 10:12:52;;;;;;;10.80;6.75;;;;;;;2.66;82.78;93190.50;4968157;28;20054;-92
2022/02/27 10:15:22;;;;;;;116.63;54.20;;;;;;;2.40;89.26;93191.47;4974957;28;20106;-88
2022/02/27 10:17:52;;;;;;;38.72;21.20;;;;;;;2.03;92.34;93187.66;4975088;28;20392;-89
2022/02/27 10:20:30;;;;;;;12.73;7.82;;;;;;;1.78;97.78;93204.56;4974773;28;20058;-86
2022/02/27 10:22:57;;;;;;;18.08;10.43;;;;;;;1.73;98.39;93236.22;4977244;28;20043;-86
2022/02/27 10:28:07;;;;;;;20.48;12.75;;;;;;;1.61;100.00;93224.78;4973304;28;20063;-89
2022/02/27 10:30:50;;;;;;;11.32;8.18;;;;;;;1.21;100.00;93166.31;4976191;28;20055;-87
2022/02/27 10:33:17;;;;;;;13.63;11.23;;;;;;;1.48;100.00;93239.63;4975535;28;20051;-90
2022/02/27 10:35:50;;;;;;;19.70;15.07;;;;;;;1.42;100.00;93251.97;4974979;28;20113;-88
2022/02/27 10:38:31;;;;;;;15.80;10.38;;;;;;;1.33;100.00;93246.06;4975450;28;20060;-87
2022/02/27 10:40:58;;;;;;;72.82;36.90;;;;;;;1.37;100.00;93250.81;4972550;28;20047;-87
2022/02/27 10:43:24;;;;;;;15.38;9.32;;;;;;;1.38;100.00;93252.44;4972667;28;20608;-86
2022/02/27 10:46:02;;;;;;;19.98;11.65;;;;;;;1.37;100.00;93245.75;4969076;28;20551;-86
2022/02/27 10:48:54;;;;;;;;;;;;;;;;;;;;;
2022/02/27 10:51:54;;;;;;;26.65;15.20;;;;;;;0.89;100.00;93198.13;4961886;28;20047;-89
2022/02/27 11:01:49;;;;;;;21.73;13.43;;;;;;;0.73;100.00;93164.22;4958445;28;20047;-88
2022/02/27 11:07:41;;;;;;;21.13;12.40;;;;;;;-0.21;100.00;93056.16;4964695;28;20061;-86
2022/02/27 11:10:33;;;;;;;34.80;20.60;;;;;;;0.66;100.00;93237.31;4955793;28;20047;-87
2022/02/27 11:13:06;;;;;;;43.08;22.98;;;;;;;0.56;100.00;93211.38;4955373;28;20142;-84
2022/02/27 11:15:33;;;;;;;16.85;10.30;;;;;;;0.53;100.00;93220.03;4965599;28;20114;-87
2022/02/27 11:18:02;;;;;;;18.95;11.40;;;;;;;0.37;100.00;93204.78;4975076;28;20064;-86
2022/02/27 11:20:41;;;;;;;;;;;;;;;;;;;;;
2022/02/27 11:23:10;;;;;;;17.73;10.27;;;;;;;0.23;100.00;93174.03;4973547;28;20478;-92
2022/02/27 11:25:42;;;;;;;17.17;10.48;;;;;;;0.41;100.00;93201.00;4974922;28;20487;-89
2022/02/27 11:28:15;;;;;;;13.07;8.70;;;;;;;0.44;100.00;93192.31;4975257;28;20510;-87
2022/02/27 11:30:49;;;;;;;16.02;10.88;;;;;;;0.34;100.00;93179.78;4975040;28;20050;-92
2022/02/27 11:33:24;;;;;;;14.93;9.50;;;;;;;0.16;100.00;93141.91;4975183;28;20090;-86
2022/02/27 11:35:52;;;;;;;19.85;12.50;;;;;;;0.54;100.00;93195.53;4974342;28;20047;-90
2022/02/27 11:38:21;;;;;;;15.65;10.73;;;;;;;0.54;100.00;93177.84;4975269;28;20051;-86
2022/02/27 11:40:56;;;;;;;12.63;8.48;;;;;;;0.51;100.00;93196.63;4975247;28;20089;-90
2022/02/27 11:44:11;;;;;;;14.48;9.52;;;;;;;0.43;100.00;93193.25;4974495;28;20061;-88
2022/02/27 11:46:43;;;;;;;25.98;13.82;;;;;;;-0.09;100.00;93119.03;4975679;28;20538;-85
2022/02/27 11:49:11;;;;;;;18.95;11.13;;;;;;;0.37;100.00;93170.16;4974051;28;20051;-85
2022/02/27 11:51:52;;;;;;;62.63;30.10;;;;;;;0.39;100.00;93170.84;4974020;28;20058;-86
2022/02/27 11:54:32;;;;;;;29.75;15.68;;;;;;;0.24;100.00;93165.50;4974323;28;20455;-90
2022/02/27 11:57:09;;;;;;;8.38;6.38;;;;;;;0.24;100.00;93165.50;4973938;28;20047;-94
2022/02/27 11:59:54;;;;;;;15.45;11.13;;;;;;;0.29;100.00;93164.28;4974358;28;20047;-87